METAR Data
IDs: Format: Raw Decoded Include TAF

Data at: 2019 UTC 19 May 2019

KCWI 192014Z AUTO 28016G24KT 10SM BKN023 OVC031 19/15 A2967 RMK AO2 PK WND 28026/2000
KCWI 191956Z AUTO 28021KT 10SM SCT023 OVC031 18/14 A2966 RMK AO2 PK WND 28030/1927 SLP062 T01830139
KCWI 191856Z AUTO 28023G27KT 10SM BKN019 OVC026 18/15 A2964 RMK AO2 PK WND 27028/1838 SLP055 T01830150
KCWI 191831Z AUTO 28022G27KT 10SM SCT014 BKN019 OVC025 18/15 A2964 RMK AO2 PK WND 28027/1827
KCWI 191811Z AUTO 27021G26KT 10SM BKN013 BKN031 OVC046 18/15 A2963 RMK AO2 PK WND 26026/1803
KCWI 191756Z AUTO 28021KT 10SM SCT010 BKN023 OVC047 18/16 A2962 RMK AO2 RAB26E40 SLP047 P0000 60021 T01830156 10189 20139 53005
KCWI 191742Z AUTO 27020KT 10SM BKN010 BKN015 OVC032 17/16 A2962 RMK AO2 RAB26E40 CIG 008V012 P0000
KCWI 191714Z AUTO 29019G25KT 8SM BKN008 BKN017 17/16 A2961 RMK AO2 CIG 002V011
KCWI 191640Z AUTO 25014KT 10SM SCT010 BKN018 OVC060 17/16 A2960 RMK AO2 LTG DSNT E AND SE TSE14RAE38 P0002
KCWI 191625Z AUTO 23011KT 10SM -RA SCT018 BKN047 OVC060 16/15 A2961 RMK AO2 LTG DSNT NE-SE TSE14 P0002
KCWI 191556Z AUTO 23015KT 10SM VCTS RA SCT020 BKN035 OVC050 14/14 A2960 RMK AO2 PK WND 24034/1511 LTG DSNT ALQDS TSB06RAB04 PRESRR SLP044 P0019 T01440139
KCWI 191539Z AUTO 24018KT 4SM TSRA BR SCT015 BKN020 OVC048 14/13 A2957 RMK AO2 PK WND 24034/1511 LTG DSNT ALQDS TSB06RAB04 P0015
KCWI 191517Z AUTO 24022G34KT 6SM -TSRA BR OVC013 15/13 A2958 RMK AO2 PK WND 24034/1511 LTG DSNT SW-N TSB06RAB04 P0003
KCWI 191456Z AUTO 20019KT 10SM BKN013 OVC032 19/17 A2956 RMK AO2 LTG DSNT SW-NW SLP030 60000 T01890167 53000
KCWI 191409Z AUTO 18014KT 10SM BKN013 BKN024 OVC075 18/17 A2955 RMK AO2 LTG DSNT N AND NW
KCWI 191356Z AUTO 20013G20KT 10SM SCT013 BKN025 OVC070 18/16 A2956 RMK AO2 RAB19E45 CIG 015V031 SLP029 P0000 T01780161
KCWI 191348Z AUTO 19016G20KT 10SM SCT016 BKN025 OVC075 18/17 A2956 RMK AO2 RAB19E45 P0000
KCWI 191256Z AUTO 20011KT 10SM OVC012 17/16 A2956 RMK AO2 SLP030 T01720161
KCWI 191253Z AUTO 20010KT 10SM BKN012 OVC018 17/16 A2956 RMK AO2
KCWI 191221Z AUTO 19010KT 10SM BKN015 BKN021 OVC095 17/16 A2957 RMK AO2
KCWI 191209Z AUTO 18010KT 10SM BKN014 BKN049 OVC100 17/16 A2956 RMK AO2
KCWI 191156Z AUTO 18011KT 10SM BKN046 BKN060 OVC095 17/16 A2957 RMK AO2 RAB21E52 SLP031 P0001 60001 70017 T01720161 10194 20172 50002
KCWI 191143Z AUTO 19010KT 10SM -RA FEW018 SCT038 OVC046 17/16 A2957 RMK AO2 RAB21 PRESRR P0001
KCWI 191056Z AUTO 19010KT 10SM SCT022 OVC029 17/16 A2957 RMK AO2 SLP032 T01720161
KCWI 190956Z AUTO 21012KT 10SM OVC018 18/16 A2957 RMK AO2 SLP031 T01780161
KCWI 190942Z AUTO 21011KT 10SM BKN018 18/16 A2957 RMK AO2
KCWI 190912Z AUTO 20007KT 10SM FEW018 17/16 A2956 RMK AO2
KCWI 190856Z AUTO 21008KT 10SM BKN020 18/16 A2956 RMK AO2 SLP028 60000 T01780161 56002
KCWI 190842Z AUTO 21009KT 10SM BKN020 18/17 A2956 RMK AO2
KCWI 190756Z AUTO 20014KT 10SM FEW024 19/16 A2956 RMK AO2 SLP028 T01890161
KCWI 190656Z AUTO 18012KT 10SM BKN095 OVC110 19/17 A2955 RMK AO2 RAE41 SLP025 P0000 T01940167
KCWI 190556Z AUTO 15012KT 10SM -RA SCT110 19/17 A2957 RMK AO2 RAB51 SLP031 P0000 60000 T01940167 10206 20178 402170089 56021
KCWI 190456Z AUTO 14007KT 10SM OVC110 19/17 A2958 RMK AO2 RAE21 SLP037 P0000 T01890172
KCWI 190356Z AUTO 17010G19KT 10SM -RA BKN070 BKN090 21/17 A2961 RMK AO2 RAB39 SLP048 P0000 T02060172
KCWI 190256Z AUTO 10010KT 10SM FEW070 18/17 A2963 RMK AO2 SLP056 60000 T01830172 58008
KCWI 190156Z AUTO 04006KT 10SM OVC100 18/18 A2965 RMK AO2 RAE03 SLP061 P0000 T01830178
KCWI 190056Z AUTO 13005KT 10SM -RA OVC110 19/18 A2964 RMK AO2 SLP061 P0000 T01890183
KCWI 182356Z AUTO 14007KT 10SM -RA SCT110 20/19 A2966 RMK AO2 LTG DSNT NW RAB09 SLP066 P0000 60000 T02000189 10217 20189 58017
KCWI 182256Z AUTO 15008KT 10SM CLR 20/19 A2968 RMK AO2 LTG DSNT SW SLP074 T02000189
KCWI 182225Z AUTO 17009KT 10SM FEW016 21/19 A2971 RMK AO2
KCWI 182156Z AUTO 18009KT 10SM OVC016 21/19 A2971 RMK AO2 SLP083 T02110189
KCWI 182056Z AUTO 17011KT 10SM OVC018 21/19 A2971 RMK AO2 SLP083 T02110194 56001
KCWI 182036Z AUTO 18012KT 10SM BKN018 BKN025 21/19 A2971 RMK AO2
KCWI 181956Z AUTO 18012KT 10SM FEW011 BKN030 21/19 A2972 RMK AO2 SLP086 T02110189
KCWI 181944Z AUTO 18013KT 10SM FEW011 BKN028 21/19 A2971 RMK AO2
KCWI 181908Z AUTO 18016KT 10SM FEW006 22/19 A2969 RMK AO2
KCWI 181856Z AUTO 17013KT 10SM SCT004 BKN028 21/19 A2969 RMK AO2 SLP077 T02060189
KCWI 181834Z AUTO 17010KT 10SM BKN004 20/19 A2968 RMK AO2
KCWI 181822Z AUTO 16011KT 10SM SCT004 19/18 A2969 RMK AO2
KCWI 181756Z AUTO 16011KT 9SM CLR 19/18 A2971 RMK AO2 RAE19 SLP085 P0000 60016 T01890183 10189 20094 56027
KCWI 181656Z AUTO 11011KT 4SM -RA BR FEW028 BKN038 BKN046 16/15 A2973 RMK AO2 PRESFR SLP091 P0001 T01560150
KCWI 181629Z AUTO 09007KT 5SM -RA BR FEW026 SCT033 SCT070 15/14 A2976 RMK AO2 P0000
KCWI 181556Z AUTO 12008KT 4SM -RA BR FEW014 BKN028 OVC070 14/14 A2977 RMK AO2 LTG DSNT N-SE TSE54 CIG 021V044 SLP106 P0015 T01440139
KCWI 181554Z AUTO 12007KT 4SM -RA BR FEW014 BKN026 OVC075 14/14 A2977 RMK AO2 LTG DSNT N-SE TSE54 P0015
KCWI 181456Z AUTO 22003KT 9SM VCTS -RA SCT070 14/13 A2979 RMK AO2 LTG DSNT SW-N TSB53RAB56 SLP114 P0000 60000 T01440128 55000
KCWI 181356Z AUTO 14011KT 10SM CLR 16/12 A2976 RMK AO2 SLP101 T01560122
KCWI 181256Z AUTO 11012KT 10SM CLR 12/09 A2977 RMK AO2 SLP106 T01170094
KCWI 181156Z AUTO 10011KT 10SM CLR 09/07 A2979 RMK AO2 SLP116 70026 T00940072 10094 20089 58009
KCWI 181056Z AUTO 09008KT 10SM BKN075 09/06 A2981 RMK AO2 SLP120 T00890061
KCWI 180956Z AUTO 09010KT 10SM OVC075 09/06 A2981 RMK AO2 SLP122 T00940056
KCWI 180856Z AUTO 10010KT 10SM OVC070 09/05 A2982 RMK AO2 SLP125 T00940050 56010